Time;durP1;ratioP1;P1;durP2;ratioP2;P2;SDS_P1;SDS_P2;PMS_P1;PMS_P2;Temp;Humidity;BMP_temperature;BMP_pressure;BME280_temperature;BME280_humidity;BME280_pressure;Samples;Min_cycle;Max_cycle;Signal;HPM_P1;HPM_P2
2021/06/03 00:00:20;;;;;;;8.15;6.65;;;22.50;42.10;;;;;;4942547;28;20614;-62
2021/06/03 00:02:48;;;;;;;45.95;35.63;;;22.50;42.50;;;;;;4944607;28;20493;-62
2021/06/03 00:05:14;;;;;;;8.57;7.72;;;22.50;41.90;;;;;;4941714;28;20046;-62
2021/06/03 00:07:39;;;;;;;10.48;9.35;;;22.60;41.80;;;;;;4943296;28;20039;-62
2021/06/03 00:10:07;;;;;;;14.85;10.90;;;22.50;42.10;;;;;;4954937;28;20051;-63
2021/06/03 00:12:34;;;;;;;12.27;9.52;;;22.50;41.80;;;;;;4958428;28;20043;-63
2021/06/03 00:15:00;;;;;;;19.88;15.02;;;22.60;41.90;;;;;;4973594;28;20047;-63
2021/06/03 00:17:26;;;;;;;7.55;6.63;;;22.50;42.00;;;;;;4946859;28;20046;-63
2021/06/03 00:19:51;;;;;;;12.13;9.90;;;22.50;41.90;;;;;;4958403;28;20035;-62
2021/06/03 00:22:17;;;;;;;8.90;7.20;;;22.50;41.90;;;;;;4956114;28;20050;-64
2021/06/03 00:24:44;;;;;;;22.80;17.10;;;22.50;42.00;;;;;;4942404;28;20035;-63
2021/06/03 00:27:09;;;;;;;10.13;7.60;;;22.50;42.10;;;;;;4942345;28;20641;-63
2021/06/03 00:29:35;;;;;;;13.40;10.60;;;22.50;42.10;;;;;;4945080;28;20031;-63
2021/06/03 00:32:01;;;;;;;7.03;5.70;;;22.40;42.20;;;;;;4940256;28;20047;-63
2021/06/03 00:34:26;;;;;;;8.88;7.32;;;22.40;42.50;;;;;;4941941;28;20166;-63
2021/06/03 00:36:52;;;;;;;29.77;20.30;;;22.50;42.30;;;;;;4956774;28;20042;-63
2021/06/03 00:39:18;;;;;;;18.83;13.60;;;22.50;42.40;;;;;;4947422;28;20039;-64
2021/06/03 00:41:43;;;;;;;18.23;13.52;;;22.50;42.00;;;;;;4947699;28;20444;-64
2021/06/03 00:44:11;;;;;;;18.85;12.02;;;22.50;42.80;;;;;;4945809;28;20621;-65
2021/06/03 00:46:36;;;;;;;9.32;7.47;;;22.50;42.30;;;;;;4957636;28;20186;-63
2021/06/03 00:49:02;;;;;;;12.02;9.13;;;22.40;42.10;;;;;;4944640;28;20464;-63
2021/06/03 00:51:28;;;;;;;7.97;7.18;;;22.40;42.40;;;;;;4944073;28;20044;-63
2021/06/03 00:53:54;;;;;;;9.63;8.35;;;22.40;42.30;;;;;;4942661;28;20047;-63
2021/06/03 00:56:20;;;;;;;6.43;5.82;;;22.40;42.20;;;;;;4953997;28;20412;-63
2021/06/03 00:58:45;;;;;;;8.10;7.28;;;22.40;42.30;;;;;;4948873;28;20039;-63
2021/06/03 01:01:12;;;;;;;8.60;7.32;;;22.40;42.60;;;;;;4941777;28;20036;-63
2021/06/03 01:03:38;;;;;;;6.15;5.55;;;22.40;42.50;;;;;;4945166;28;20053;-63
2021/06/03 01:06:08;;;;;;;9.27;5.72;;;22.30;42.90;;;;;;4964417;28;20043;-63
2021/06/03 01:09:00;;;;;;;6.05;5.47;;;22.40;42.90;;;;;;4948597;28;20035;-63
2021/06/03 01:11:48;;;;;;;6.65;5.47;;;22.40;43.40;;;;;;4939507;28;20043;-63
2021/06/03 01:14:30;;;;;;;5.72;5.13;;;22.30;43.60;;;;;;4942815;28;21282;-64
2021/06/03 01:16:58;;;;;;;6.28;5.40;;;22.30;43.30;;;;;;4930432;28;20046;-64
2021/06/03 01:19:31;;;;;;;8.15;5.88;;;22.30;42.90;;;;;;4950158;28;20047;-64
2021/06/03 01:22:21;;;;;;;5.30;4.80;;;22.30;43.00;;;;;;4955842;28;20109;-64
2021/06/03 01:24:49;;;;;;;5.70;5.25;;;22.30;44.80;;;;;;4947075;28;20059;-64
2021/06/03 01:27:18;;;;;;;7.65;5.50;;;22.20;43.50;;;;;;4939655;28;20086;-64
2021/06/03 01:29:52;;;;;;;5.97;5.47;;;22.20;43.60;;;;;;4942641;28;20047;-64
2021/06/03 01:32:18;;;;;;;6.45;5.15;;;22.20;43.40;;;;;;4957591;28;20038;-64
2021/06/03 01:34:46;;;;;;;7.20;5.90;;;22.20;43.60;;;;;;4949801;28;20043;-64
2021/06/03 01:37:12;;;;;;;7.50;6.43;;;22.20;43.50;;;;;;4963077;28;20126;-64
2021/06/03 01:39:41;;;;;;;6.38;5.78;;;22.20;43.40;;;;;;4953128;28;20113;-64
2021/06/03 01:42:07;;;;;;;6.85;6.10;;;22.20;43.50;;;;;;4947833;28;20039;-64
2021/06/03 01:44:34;;;;;;;6.78;6.13;;;22.20;43.50;;;;;;4948088;28;20051;-64
2021/06/03 01:47:01;;;;;;;7.68;6.05;;;22.10;43.40;;;;;;4940552;28;20163;-64
2021/06/03 01:49:27;;;;;;;7.03;6.43;;;22.10;43.60;;;;;;4955047;28;20141;-64
2021/06/03 01:52:00;;;;;;;7.63;6.90;;;22.10;43.50;;;;;;4957968;28;20051;-63
2021/06/03 01:54:27;;;;;;;6.95;6.35;;;22.00;43.90;;;;;;4948255;28;20137;-64
2021/06/03 01:56:52;;;;;;;8.60;7.85;;;22.00;44.00;;;;;;4958823;28;20062;-63
2021/06/03 01:59:18;;;;;;;7.78;7.07;;;22.00;43.90;;;;;;4957606;28;20434;-64
2021/06/03 02:01:44;;;;;;;8.43;7.63;;;22.00;43.90;;;;;;4951108;28;20042;-64
2021/06/03 02:04:12;;;;;;;8.05;7.35;;;22.00;44.20;;;;;;4942912;28;20047;-64
2021/06/03 02:06:39;;;;;;;7.10;6.43;;;22.00;44.50;;;;;;4950321;28;20094;-65
2021/06/03 02:09:06;;;;;;;7.43;6.72;;;22.00;44.70;;;;;;4942284;28;20396;-64
2021/06/03 02:11:32;;;;;;;7.97;7.30;;;22.00;45.10;;;;;;4943213;28;20176;-64
2021/06/03 02:14:00;;;;;;;7.65;6.95;;;22.00;45.00;;;;;;4947312;28;20031;-64
2021/06/03 02:16:32;;;;;;;8.18;7.47;;;22.00;45.00;;;;;;4973205;28;20071;-64
2021/06/03 02:19:01;;;;;;;9.43;7.95;;;22.00;45.30;;;;;;4956456;28;20124;-65
2021/06/03 02:21:27;;;;;;;11.52;6.97;;;22.00;45.00;;;;;;4944400;28;20043;-64
2021/06/03 02:23:53;;;;;;;7.05;6.47;;;22.00;44.60;;;;;;4947946;28;20133;-64
2021/06/03 02:26:20;;;;;;;9.15;8.25;;;22.00;44.70;;;;;;4957623;28;20201;-66
2021/06/03 02:28:48;;;;;;;8.27;7.53;;;22.00;44.50;;;;;;4943352;28;20042;-66
2021/06/03 02:31:14;;;;;;;7.88;7.18;;;22.00;44.60;;;;;;4949506;28;20050;-66
2021/06/03 02:33:40;;;;;;;8.73;7.28;;;22.00;44.60;;;;;;4943995;28;20035;-64
2021/06/03 02:36:08;;;;;;;7.35;6.65;;;22.00;44.90;;;;;;4949372;28;20046;-64
2021/06/03 02:38:36;;;;;;;7.93;7.25;;;22.00;45.00;;;;;;4945540;28;20049;-64
2021/06/03 02:41:06;;;;;;;7.90;7.18;;;22.00;45.00;;;;;;4952589;28;20505;-64
2021/06/03 02:43:34;;;;;;;7.47;6.88;;;21.90;45.20;;;;;;4960731;28;20034;-64
2021/06/03 02:46:01;;;;;;;9.23;7.35;;;21.90;45.40;;;;;;4945741;28;20047;-64
2021/06/03 02:48:27;;;;;;;7.65;6.85;;;21.90;45.40;;;;;;4953990;28;20138;-62
2021/06/03 02:50:53;;;;;;;8.07;7.38;;;21.90;45.40;;;;;;4947242;28;20401;-63
2021/06/03 02:53:19;;;;;;;7.47;6.88;;;21.80;45.70;;;;;;4947230;28;20080;-64
2021/06/03 02:55:44;;;;;;;8.40;6.72;;;21.90;45.80;;;;;;4953998;28;20051;-64
2021/06/03 02:58:11;;;;;;;7.82;7.03;;;21.80;45.60;;;;;;4963383;28;20142;-64
2021/06/03 03:00:37;;;;;;;7.53;6.72;;;21.80;45.70;;;;;;4956267;28;20063;-63
2021/06/03 03:03:08;;;;;;;8.18;7.47;;;21.80;46.10;;;;;;4952878;28;20374;-63
2021/06/03 03:05:36;;;;;;;8.20;7.50;;;21.70;46.30;;;;;;4965748;28;20170;-64
2021/06/03 03:08:02;;;;;;;7.93;7.13;;;21.70;46.20;;;;;;4955770;28;21276;-64
2021/06/03 03:10:33;;;;;;;8.18;7.38;;;21.70;46.30;;;;;;4946599;28;20050;-64
2021/06/03 03:12:59;;;;;;;7.53;6.50;;;21.60;46.70;;;;;;4981259;28;22369;-63
2021/06/03 03:15:26;;;;;;;7.88;7.07;;;21.60;46.80;;;;;;4948967;28;20106;-63
2021/06/03 03:17:52;;;;;;;9.10;6.90;;;21.60;47.10;;;;;;4961805;28;20046;-62
2021/06/03 03:20:20;;;;;;;7.38;6.68;;;21.60;47.20;;;;;;4951747;28;20157;-63
2021/06/03 03:22:47;;;;;;;7.50;6.90;;;21.50;47.30;;;;;;4963182;28;20042;-63
2021/06/03 03:25:15;;;;;;;10.30;8.05;;;21.50;47.50;;;;;;4950148;28;20063;-63
2021/06/03 03:27:42;;;;;;;8.05;7.40;;;21.50;47.70;;;;;;4943972;28;20051;-63
2021/06/03 03:30:09;;;;;;;7.93;7.13;;;21.50;47.50;;;;;;4958883;28;20393;-63
2021/06/03 03:32:35;;;;;;;7.57;6.97;;;21.50;47.30;;;;;;4943799;28;20409;-63
2021/06/03 03:35:01;;;;;;;7.43;6.72;;;21.50;47.70;;;;;;4951012;28;20046;-63
2021/06/03 03:37:29;;;;;;;8.85;7.22;;;21.50;47.70;;;;;;4941933;28;20035;-63
2021/06/03 03:39:57;;;;;;;9.00;8.27;;;21.50;48.40;;;;;;4949588;28;20114;-63
2021/06/03 03:42:23;;;;;;;8.98;8.10;;;21.40;48.20;;;;;;4960495;28;20057;-63
2021/06/03 03:44:50;;;;;;;8.30;7.50;;;21.40;48.20;;;;;;4948633;28;20050;-64
2021/06/03 03:47:15;;;;;;;8.70;7.82;;;21.50;47.90;;;;;;4952652;28;20058;-63
2021/06/03 03:49:41;;;;;;;11.23;8.50;;;21.50;48.00;;;;;;4952776;28;20046;-62
2021/06/03 03:52:07;;;;;;;9.45;8.50;;;21.40;48.20;;;;;;4949416;28;20030;-63
2021/06/03 03:54:33;;;;;;;8.88;7.63;;;21.30;48.40;;;;;;4947886;28;20043;-63
2021/06/03 03:56:59;;;;;;;11.70;9.48;;;21.30;48.60;;;;;;4948755;28;20047;-63
2021/06/03 03:59:24;;;;;;;10.80;8.63;;;21.30;48.80;;;;;;4959436;28;20035;-63
2021/06/03 04:01:54;;;;;;;11.15;10.00;;;21.30;48.80;;;;;;4954249;28;20031;-63
2021/06/03 04:04:21;;;;;;;11.48;9.75;;;21.40;48.90;;;;;;4951318;28;20035;-63
2021/06/03 04:06:47;;;;;;;12.05;9.40;;;21.40;48.90;;;;;;4943949;28;20054;-64
2021/06/03 04:09:13;;;;;;;12.32;9.32;;;21.30;49.20;;;;;;4955197;28;20174;-63
2021/06/03 04:11:38;;;;;;;10.02;9.02;;;21.40;49.40;;;;;;4945546;28;20122;-63
2021/06/03 04:14:04;;;;;;;11.15;10.20;;;21.30;49.80;;;;;;4950453;28;20047;-63
2021/06/03 04:16:30;;;;;;;11.70;10.50;;;21.30;49.60;;;;;;4960534;28;20445;-63
2021/06/03 04:18:55;;;;;;;12.88;10.13;;;21.30;49.80;;;;;;4946395;28;20473;-63
2021/06/03 04:21:21;;;;;;;10.80;9.70;;;21.30;50.30;;;;;;4951027;28;20047;-64
2021/06/03 04:23:48;;;;;;;12.75;11.45;;;21.30;50.40;;;;;;4952595;28;20030;-64
2021/06/03 04:26:14;;;;;;;12.15;10.85;;;21.30;50.50;;;;;;4949058;28;20043;-64
2021/06/03 04:28:41;;;;;;;13.15;10.70;;;21.30;50.70;;;;;;4948275;28;20128;-63
2021/06/03 04:31:06;;;;;;;12.80;11.60;;;21.30;51.20;;;;;;4957376;28;20038;-64
2021/06/03 04:33:32;;;;;;;12.43;10.95;;;21.30;51.20;;;;;;4963447;28;20097;-64
2021/06/03 04:35:58;;;;;;;12.20;11.00;;;21.30;51.20;;;;;;4953418;28;20125;-63
2021/06/03 04:38:23;;;;;;;13.32;12.02;;;21.30;51.40;;;;;;4941560;28;20437;-62
2021/06/03 04:40:49;;;;;;;12.93;11.70;;;21.30;51.70;;;;;;4946553;28;20039;-63
2021/06/03 04:43:16;;;;;;;13.35;12.10;;;21.30;51.80;;;;;;4940658;28;20043;-63
2021/06/03 04:45:41;;;;;;;12.85;11.65;;;21.30;52.10;;;;;;4937077;28;20130;-63
2021/06/03 04:48:08;;;;;;;13.02;11.73;;;21.20;52.30;;;;;;4945340;28;20077;-63
2021/06/03 04:50:36;;;;;;;13.75;12.35;;;21.20;52.30;;;;;;4951343;28;20051;-63
2021/06/03 04:53:02;;;;;;;13.20;11.60;;;21.30;52.50;;;;;;4938066;28;20404;-64
2021/06/03 04:55:28;;;;;;;13.05;11.75;;;21.20;52.60;;;;;;4944366;28;20048;-63
2021/06/03 04:57:54;;;;;;;12.05;10.82;;;21.20;60.10;;;;;;4935438;28;20130;-63
2021/06/03 05:00:32;;;;;;;12.98;11.63;;;21.20;52.50;;;;;;4941677;28;20043;-64
2021/06/03 05:02:59;;;;;;;12.88;11.68;;;21.30;53.40;;;;;;4921276;28;20094;-64
2021/06/03 05:05:25;;;;;;;14.05;12.73;;;21.20;52.60;;;;;;4942820;28;20465;-63
2021/06/03 05:07:51;;;;;;;15.02;12.45;;;21.20;52.80;;;;;;4950542;28;20572;-63
2021/06/03 05:10:18;;;;;;;15.05;12.90;;;21.20;52.90;;;;;;4944858;28;20074;-64
2021/06/03 05:12:45;;;;;;;12.50;11.38;;;21.10;53.20;;;;;;4958869;28;20042;-64
2021/06/03 05:15:12;;;;;;;15.88;14.05;;;21.10;53.30;;;;;;4948944;28;20043;-63
2021/06/03 05:17:38;;;;;;;14.32;12.90;;;21.10;53.70;;;;;;4939802;28;20514;-63
2021/06/03 05:20:06;;;;;;;14.10;12.70;;;21.10;55.20;;;;;;4948106;28;20034;-64
2021/06/03 05:22:32;;;;;;;15.48;13.40;;;21.10;53.70;;;;;;4949346;28;20032;-63
2021/06/03 05:24:57;;;;;;;15.98;14.27;;;21.10;53.70;;;;;;4963854;28;20702;-64
2021/06/03 05:27:23;;;;;;;17.40;14.85;;;21.10;53.80;;;;;;4949279;28;20036;-57
2021/06/03 05:29:49;;;;;;;17.95;16.00;;;21.10;54.10;;;;;;4950301;28;20576;-64
2021/06/03 05:32:15;;;;;;;16.30;14.60;;;21.00;54.30;;;;;;4948344;28;20039;-64
2021/06/03 05:34:40;;;;;;;17.20;15.50;;;21.00;54.30;;;;;;4941071;28;20042;-64
2021/06/03 05:37:06;;;;;;;17.77;15.95;;;21.00;54.50;;;;;;4955078;28;20105;-64
2021/06/03 05:39:32;;;;;;;24.77;16.48;;;21.00;54.90;;;;;;4940329;28;20230;-64
2021/06/03 05:41:58;;;;;;;17.63;15.63;;;20.90;55.00;;;;;;4942897;28;20031;-64
2021/06/03 05:44:24;;;;;;;19.70;17.27;;;21.00;55.00;;;;;;4957533;28;20042;-64
2021/06/03 05:46:49;;;;;;;19.20;17.15;;;21.00;55.40;;;;;;4944362;28;20090;-65
2021/06/03 05:49:15;;;;;;;19.58;16.98;;;21.00;55.30;;;;;;4942887;28;20102;-64
2021/06/03 05:51:41;;;;;;;20.80;16.88;;;21.00;55.30;;;;;;4943093;28;20161;-64
2021/06/03 05:54:09;;;;;;;19.40;17.50;;;21.00;55.40;;;;;;4946528;28;20036;-64
2021/06/03 05:56:34;;;;;;;20.65;18.52;;;21.10;55.50;;;;;;4936206;28;20047;-64
2021/06/03 05:59:01;;;;;;;20.58;17.92;;;21.10;55.50;;;;;;4952001;28;20142;-63
2021/06/03 06:01:28;;;;;;;19.45;17.33;;;21.10;55.50;;;;;;4943222;28;20478;-63
2021/06/03 06:06:26;;;;;;;18.80;16.83;;;21.10;55.60;;;;;;4950810;28;20043;-63
2021/06/03 06:08:55;;;;;;;19.38;17.35;;;21.20;55.30;;;;;;4950901;28;20109;-64
2021/06/03 06:11:22;;;;;;;19.35;17.42;;;21.20;55.30;;;;;;4950257;28;20553;-64
2021/06/03 06:13:49;;;;;;;21.17;17.80;;;21.20;55.00;;;;;;4943985;28;20474;-64
2021/06/03 06:16:15;;;;;;;21.52;19.42;;;21.30;55.10;;;;;;4953600;28;20055;-63
2021/06/03 06:18:42;;;;;;;21.50;19.20;;;21.30;54.70;;;;;;4945547;28;20099;-64
2021/06/03 06:21:08;;;;;;;20.58;18.45;;;21.30;54.60;;;;;;4942400;28;20093;-64
2021/06/03 06:23:36;;;;;;;20.92;17.88;;;21.40;54.80;;;;;;4941207;28;20055;-64
2021/06/03 06:26:03;;;;;;;20.52;18.45;;;21.40;54.80;;;;;;4937912;28;20126;-64
2021/06/03 06:28:29;;;;;;;20.33;16.67;;;21.50;54.20;;;;;;4955934;28;20107;-64
2021/06/03 06:30:55;;;;;;;17.42;15.75;;;21.60;53.80;;;;;;4952123;28;20047;-58
2021/06/03 06:33:21;;;;;;;17.45;15.68;;;21.60;52.90;;;;;;4947854;28;20331;-64
2021/06/03 06:35:48;;;;;;;19.63;16.20;;;21.60;52.70;;;;;;4959633;28;20046;-64
2021/06/03 06:38:15;;;;;;;19.45;16.75;;;21.60;52.40;;;;;;4949666;28;20130;-65
2021/06/03 06:40:41;;;;;;;20.42;16.83;;;21.80;52.50;;;;;;4946189;28;20130;-64
2021/06/03 06:43:06;;;;;;;18.85;16.55;;;21.80;52.20;;;;;;4949082;28;20134;-64
2021/06/03 06:45:33;;;;;;;25.00;16.30;;;21.90;52.50;;;;;;4950488;28;20055;-66
2021/06/03 06:47:59;;;;;;;13.82;12.55;;;21.90;51.70;;;;;;4940852;28;20047;-65
2021/06/03 06:50:26;;;;;;;14.85;13.35;;;22.00;50.40;;;;;;4953085;28;20832;-64
2021/06/03 06:52:53;;;;;;;13.65;12.25;;;22.10;50.50;;;;;;4937260;28;20043;-66
2021/06/03 06:55:19;;;;;;;13.23;11.93;;;22.10;48.50;;;;;;4946458;28;20044;-64
2021/06/03 06:57:45;;;;;;;14.40;11.80;;;22.10;48.10;;;;;;4944072;28;20058;-64
2021/06/03 07:00:12;;;;;;;11.88;10.68;;;22.10;48.00;;;;;;4936853;28;20106;-64
2021/06/03 07:02:38;;;;;;;12.57;11.50;;;22.20;47.10;;;;;;4947428;28;20035;-65
2021/06/03 07:05:07;;;;;;;13.52;10.63;;;22.20;46.40;;;;;;4945884;28;20043;-61
2021/06/03 07:07:34;;;;;;;11.55;10.40;;;22.30;46.00;;;;;;4950614;28;20043;-63
2021/06/03 07:10:00;;;;;;;12.13;10.90;;;22.40;46.10;;;;;;4950175;28;20495;-64
2021/06/03 07:12:26;;;;;;;13.07;11.70;;;22.40;45.30;;;;;;4944385;28;20047;-62
2021/06/03 07:14:52;;;;;;;12.57;11.38;;;22.50;45.50;;;;;;4951374;28;20039;-64
2021/06/03 07:17:17;;;;;;;14.13;12.27;;;22.50;45.10;;;;;;4954446;28;20066;-63
2021/06/03 07:19:43;;;;;;;14.77;11.88;;;22.50;44.60;;;;;;4963624;28;20145;-62
2021/06/03 07:22:10;;;;;;;14.57;11.48;;;22.50;44.40;;;;;;4954060;28;20031;-63
2021/06/03 07:24:36;;;;;;;12.98;11.82;;;22.60;44.60;;;;;;4949662;28;20090;-62
2021/06/03 07:27:03;;;;;;;12.27;10.55;;;22.60;43.70;;;;;;4954113;28;20061;-61
2021/06/03 07:29:29;;;;;;;12.10;10.93;;;22.60;43.50;;;;;;4939851;28;20042;-62
2021/06/03 07:31:55;;;;;;;13.82;10.75;;;22.60;43.20;;;;;;4946892;28;20044;-63
2021/06/03 07:34:21;;;;;;;10.95;9.77;;;22.70;43.40;;;;;;4944570;28;20051;-62
2021/06/03 07:36:46;;;;;;;14.98;10.85;;;22.70;43.10;;;;;;4947119;28;20039;-62
2021/06/03 07:39:12;;;;;;;20.05;10.30;;;22.70;43.20;;;;;;4940701;28;20043;-62
2021/06/03 07:41:38;;;;;;;12.40;11.10;;;22.80;43.60;;;;;;4957819;28;20043;-62
2021/06/03 07:44:05;;;;;;;12.77;11.60;;;22.80;43.10;;;;;;4945425;28;20051;-62
2021/06/03 07:46:31;;;;;;;13.90;12.50;;;22.90;43.00;;;;;;4941972;28;20055;-62
2021/06/03 07:48:57;;;;;;;14.90;13.43;;;22.90;43.10;;;;;;4950301;28;20038;-62
2021/06/03 07:51:23;;;;;;;14.30;13.00;;;22.90;43.30;;;;;;4957417;28;20035;-63
2021/06/03 07:53:48;;;;;;;13.32;12.00;;;23.00;43.30;;;;;;4939716;28;20379;-63
2021/06/03 07:56:15;;;;;;;13.43;11.60;;;23.00;43.70;;;;;;4959252;28;20070;-63
2021/06/03 07:58:41;;;;;;;16.88;14.68;;;23.00;43.70;;;;;;4951140;28;20568;-62
2021/06/03 08:01:07;;;;;;;16.10;14.32;;;23.00;44.00;;;;;;4954731;28;20119;-62
2021/06/03 08:03:32;;;;;;;18.45;16.00;;;23.10;44.40;;;;;;4949238;28;20468;-62
2021/06/03 08:05:58;;;;;;;21.45;16.02;;;23.20;44.60;;;;;;4949917;28;20038;-62
2021/06/03 08:08:24;;;;;;;23.88;17.77;;;23.20;44.60;;;;;;4949414;28;20075;-64
2021/06/03 08:10:49;;;;;;;17.75;15.85;;;23.20;45.10;;;;;;4964216;28;20492;-63
2021/06/03 08:13:15;;;;;;;17.85;15.65;;;23.20;45.30;;;;;;4945978;28;20038;-63
2021/06/03 08:15:43;;;;;;;21.77;17.08;;;23.30;45.10;;;;;;4928067;28;20150;-63
2021/06/03 08:18:09;;;;;;;21.50;19.10;;;23.40;45.40;;;;;;4946022;28;20398;-62
2021/06/03 08:20:48;;;;;;;22.98;17.38;;;23.40;45.40;;;;;;4957872;28;20105;-63
2021/06/03 08:23:16;;;;;;;20.10;18.00;;;23.40;45.80;;;;;;4955433;28;20404;-63
2021/06/03 08:25:42;;;;;;;20.02;17.02;;;23.50;45.50;;;;;;4949854;28;21653;-63
2021/06/03 08:28:08;;;;;;;20.38;18.27;;;23.50;45.30;;;;;;4951162;28;20801;-63
2021/06/03 08:30:35;;;;;;;20.00;18.00;;;23.50;45.10;;;;;;4943846;28;20053;-62
2021/06/03 08:33:01;;;;;;;19.45;16.48;;;23.50;45.10;;;;;;4940896;28;20130;-63
2021/06/03 08:35:27;;;;;;;45.53;20.25;;;23.50;45.20;;;;;;4939603;28;20108;-63
2021/06/03 08:37:56;;;;;;;23.17;16.75;;;23.60;45.20;;;;;;4942749;28;20052;-63
2021/06/03 08:40:24;;;;;;;19.88;15.18;;;23.70;44.80;;;;;;4961027;28;20484;-63
2021/06/03 08:42:52;;;;;;;17.13;15.23;;;23.70;44.70;;;;;;4952817;28;21220;-63
2021/06/03 08:45:19;;;;;;;14.90;13.40;;;23.80;44.10;;;;;;4944419;28;20122;-63
2021/06/03 08:47:45;;;;;;;17.38;15.60;;;23.90;44.20;;;;;;4952320;28;20063;-64
2021/06/03 08:50:11;;;;;;;18.42;16.52;;;23.80;43.80;;;;;;4957529;28;20070;-63
2021/06/03 08:52:37;;;;;;;17.52;15.35;;;23.90;43.20;;;;;;4953960;28;20508;-63
2021/06/03 08:55:09;;;;;;;20.80;13.85;;;24.00;43.20;;;;;;4949083;28;20047;-63
2021/06/03 08:57:34;;;;;;;13.60;12.20;;;24.00;42.80;;;;;;4939587;28;20082;-61
2021/06/03 09:00:01;;;;;;;17.02;13.27;;;24.10;41.30;;;;;;4943415;28;20047;-63
2021/06/03 09:02:27;;;;;;;24.63;13.07;;;24.10;41.90;;;;;;4948191;28;20053;-63
2021/06/03 09:04:53;;;;;;;15.80;12.93;;;24.10;41.50;;;;;;4957840;28;20417;-63
2021/06/03 09:07:30;;;;;;;23.15;11.93;;;24.20;41.20;;;;;;4953306;28;20063;-63
2021/06/03 09:09:57;;;;;;;11.52;10.07;;;24.20;40.60;;;;;;4959183;28;20060;-63
2021/06/03 09:12:23;;;;;;;13.70;9.48;;;24.30;39.90;;;;;;4947061;28;20110;-64
2021/06/03 09:15:15;;;;;;;11.15;9.52;;;24.30;39.80;;;;;;4952463;28;20062;-64
2021/06/03 09:17:45;;;;;;;11.77;7.55;;;24.30;38.70;;;;;;4925364;28;20039;-64
2021/06/03 09:20:11;;;;;;;12.57;8.88;;;24.30;38.00;;;;;;4951590;28;20512;-64
2021/06/03 09:22:38;;;;;;;13.07;9.63;;;24.30;38.90;;;;;;4944147;28;20117;-61
2021/06/03 09:25:29;;;;;;;16.27;9.60;;;24.40;38.50;;;;;;4942451;28;20528;-64
2021/06/03 09:27:55;;;;;;;10.27;8.25;;;24.60;37.30;;;;;;4951845;28;20052;-64
2021/06/03 09:30:21;;;;;;;11.13;6.85;;;24.50;36.90;;;;;;4937288;28;20047;-65
2021/06/03 09:32:54;;;;;;;8.98;6.50;;;24.50;36.80;;;;;;4949165;28;20039;-64
2021/06/03 09:35:20;;;;;;;9.88;7.45;;;24.60;35.70;;;;;;4948951;28;20617;-63
2021/06/03 09:37:46;;;;;;;10.35;6.25;;;24.60;36.70;;;;;;4935356;28;20055;-64
2021/06/03 09:40:21;;;;;;;5.82;5.10;;;;;;;;;;4932564;28;20050;-63
2021/06/03 09:43:20;;;;;;;4.90;4.38;;;24.70;47.10;;;;;;4938349;28;20097;-63
2021/06/03 09:46:01;;;;;;;7.40;4.97;;;24.80;33.20;;;;;;4912073;28;20130;-62
2021/06/03 09:48:40;;;;;;;6.88;4.47;;;24.80;34.40;;;;;;4947279;28;20240;-62
2021/06/03 09:51:20;;;;;;;37.17;7.03;;;24.80;33.00;;;;;;4933318;28;20061;-63
2021/06/03 09:53:49;;;;;;;11.68;4.10;;;25.00;34.30;;;;;;4934096;28;20075;-61
2021/06/03 09:56:39;;;;;;;5.82;4.57;;;25.20;45.00;;;;;;4937170;28;20147;-61
2021/06/03 09:59:07;;;;;;;8.70;6.10;;;25.20;41.10;;;;;;4931906;28;20120;-60
2021/06/03 10:01:51;;;;;;;8.52;6.35;;;25.20;33.80;;;;;;4947873;28;20061;-62
2021/06/03 10:04:23;;;;;;;7.15;6.55;;;25.10;36.30;;;;;;4924478;28;20172;-62
2021/06/03 10:07:04;;;;;;;6.63;6.00;;;24.30;34.90;;;;;;4950926;28;20493;-64
2021/06/03 10:09:51;;;;;;;8.57;5.65;;;25.30;34.80;;;;;;4950252;28;20047;-65
2021/06/03 10:12:37;;;;;;;6.15;5.65;;;25.40;35.50;;;;;;4933504;28;20523;-64
2021/06/03 10:15:10;;;;;;;9.95;4.78;;;25.40;38.50;;;;;;4922079;28;20044;-65
2021/06/03 10:17:37;;;;;;;5.53;4.38;;;25.40;34.80;;;;;;4949135;28;20039;-63
2021/06/03 10:20:10;;;;;;;8.25;5.43;;;25.80;44.80;;;;;;4955668;28;20114;-64
2021/06/03 10:22:39;;;;;;;6.70;5.85;;;26.00;43.70;;;;;;4957734;28;20397;-63
2021/06/03 10:25:11;;;;;;;7.85;5.22;;;25.80;37.50;;;;;;4943928;28;20051;-63
2021/06/03 10:27:40;;;;;;;5.35;4.53;;;25.80;33.00;;;;;;4938431;28;20154;-63
2021/06/03 10:30:16;;;;;;;5.85;5.35;;;25.80;31.40;;;;;;4941667;28;20158;-63
2021/06/03 10:32:45;;;;;;;4.40;4.00;;;25.70;32.30;;;;;;4934976;28;20935;-64
2021/06/03 10:35:14;;;;;;;7.20;6.55;;;25.90;31.90;;;;;;4957959;28;20342;-64
2021/06/03 10:37:42;;;;;;;6.70;5.88;;;26.00;32.40;;;;;;4938923;28;20103;-63
2021/06/03 10:40:11;;;;;;;5.57;4.30;;;26.00;32.10;;;;;;4938560;28;20043;-64
2021/06/03 10:42:39;;;;;;;4.40;4.00;;;26.00;32.10;;;;;;4943114;28;20043;-64
2021/06/03 10:45:06;;;;;;;4.60;4.07;;;26.10;32.90;;;;;;4942492;28;20267;-64
2021/06/03 10:47:32;;;;;;;7.38;4.63;;;26.40;32.60;;;;;;4933725;28;20056;-64
2021/06/03 10:50:00;;;;;;;6.20;4.10;;;26.60;32.30;;;;;;4945621;28;20519;-64
2021/06/03 10:52:27;;;;;;;5.97;4.80;;;26.70;31.00;;;;;;4944504;28;20043;-64
2021/06/03 10:54:55;;;;;;;6.35;4.55;;;;;;;;;;4938575;28;20067;-64
2021/06/03 10:57:25;;;;;;;4.93;4.40;;;27.90;57.20;;;;;;4951683;28;20046;-64
2021/06/03 10:59:51;;;;;;;5.32;4.85;;;27.90;29.60;;;;;;4933941;28;20043;-64
2021/06/03 11:02:17;;;;;;;4.63;4.30;;;28.00;37.80;;;;;;4930383;28;20067;-64
2021/06/03 11:04:45;;;;;;;4.20;3.90;;;28.00;28.70;;;;;;4944296;28;20031;-64
2021/06/03 11:07:12;;;;;;;10.27;5.50;;;28.50;30.30;;;;;;4946964;28;20059;-64
2021/06/03 11:09:42;;;;;;;5.63;5.07;;;29.00;27.80;;;;;;4933303;28;20050;-64
2021/06/03 11:12:12;;;;;;;5.78;5.20;;;30.20;27.00;;;;;;4945685;28;20144;-64
2021/06/03 11:15:08;;;;;;;7.05;4.30;;;31.20;26.60;;;;;;4935404;28;20050;-61
2021/06/03 11:17:57;;;;;;;7.18;4.78;;;30.90;26.50;;;;;;4940428;28;20047;-63
2021/06/03 11:20:38;;;;;;;5.72;3.67;;;30.20;26.00;;;;;;4920248;28;20039;-63
2021/06/03 11:23:34;;;;;;;3.40;3.10;;;30.00;26.20;;;;;;4940536;28;20548;-66
2021/06/03 11:26:04;;;;;;;7.03;4.20;;;30.30;25.80;;;;;;4929459;28;20038;-63
2021/06/03 11:28:30;;;;;;;4.05;3.63;;;30.70;26.60;;;;;;4940980;28;20043;-63
2021/06/03 11:31:16;;;;;;;4.82;3.83;;;30.30;26.10;;;;;;4946785;28;20069;-62
2021/06/03 11:34:13;;;;;;;4.82;3.85;;;30.20;25.90;;;;;;4911393;28;20699;-62
2021/06/03 11:36:41;;;;;;;6.20;3.75;;;30.30;25.60;;;;;;4941985;28;20032;-62
2021/06/03 11:39:33;;;;;;;11.82;6.18;;;30.30;26.20;;;;;;4936294;28;20050;-62
2021/06/03 11:42:17;;;;;;;6.40;5.25;;;30.50;25.00;;;;;;4936574;28;20035;-62
2021/06/03 11:45:07;;;;;;;6.45;5.85;;;30.60;25.20;;;;;;4913584;28;20043;-62
2021/06/03 11:47:39;;;;;;;7.65;5.65;;;30.70;24.50;;;;;;4949622;28;20047;-63
2021/06/03 11:50:30;;;;;;;5.22;4.72;;;30.90;25.00;;;;;;4932934;28;20130;-64
2021/06/03 11:52:56;;;;;;;6.88;4.45;;;31.20;26.50;;;;;;4935022;28;20049;-62
2021/06/03 11:56:20;;;;;;;3.90;3.60;;;31.30;25.40;;;;;;4937843;28;20093;-62
2021/06/03 11:58:50;;;;;;;8.38;3.70;;;30.70;23.90;;;;;;4860329;28;20101;-66
2021/06/03 12:01:15;;;;;;;3.75;3.17;;;31.00;24.90;;;;;;4941979;28;20035;-59
2021/06/03 12:03:46;;;;;;;3.33;3.03;;;31.00;24.80;;;;;;4948478;28;20047;-65
2021/06/03 12:06:24;;;;;;;4.80;2.92;;;31.40;24.70;;;;;;4938219;28;20098;-62
2021/06/03 12:08:52;;;;;;;2.92;2.72;;;31.40;23.70;;;;;;4956212;28;20114;-62
2021/06/03 12:11:22;;;;;;;3.20;3.00;;;31.40;24.30;;;;;;4942162;28;20570;-62
2021/06/03 12:14:08;;;;;;;5.05;3.17;;;31.40;24.50;;;;;;4966330;28;20062;-63
2021/06/03 12:16:42;;;;;;;15.40;3.78;;;31.40;23.60;;;;;;4942978;28;20097;-62
2021/06/03 12:19:10;;;;;;;4.18;2.88;;;31.70;24.50;;;;;;4939001;28;20043;-61
2021/06/03 12:21:37;;;;;;;3.85;3.03;;;31.70;23.80;;;;;;4934365;28;20093;-55
2021/06/03 12:24:04;;;;;;;3.05;2.85;;;32.20;23.40;;;;;;4929924;28;20054;-62
2021/06/03 12:26:30;;;;;;;3.05;2.72;;;32.70;23.10;;;;;;4926126;28;20130;-62
2021/06/03 12:28:55;;;;;;;5.00;2.70;;;33.20;23.00;;;;;;4938126;28;21727;-61
2021/06/03 12:31:28;;;;;;;6.40;3.20;;;33.20;27.20;;;;;;4936829;28;20039;-61
2021/06/03 12:33:56;;;;;;;11.27;3.38;;;32.80;27.20;;;;;;4939740;28;20559;-61
2021/06/03 12:36:25;;;;;;;4.95;3.50;;;32.90;30.20;;;;;;4935029;28;20114;-62
2021/06/03 12:38:53;;;;;;;4.57;3.42;;;32.60;22.70;;;;;;4943677;28;20465;-61
2021/06/03 12:41:21;;;;;;;2.92;2.58;;;32.60;22.30;;;;;;4940507;28;20043;-61
2021/06/03 12:43:57;;;;;;;3.92;2.70;;;32.80;21.70;;;;;;4937288;28;20043;-61
2021/06/03 12:46:47;;;;;;;4.28;2.80;;;33.20;21.50;;;;;;4931272;28;20155;-63
2021/06/03 12:49:25;;;;;;;3.95;3.42;;;33.70;21.20;;;;;;4915324;28;20155;-63